Terminal Aerodrome Forecast
Issued by NWS Wakefield, VA

Current Version | Previous Version | Text Only | Print | Product List | Glossary On
Versions: 1 2 3 4 5 6 7 8 9 10 11 12 13 14 15 16
000
FTUS41 KAKQ 020532
TAFRIC
TAF
KRIC 020532Z 0206/0306 00000KT P6SM BKN250
      TEMPO 0208/0212 4SM BR
     FM021300 VRB03KT P6SM SCT250
     FM021600 34005KT P6SM SCT050
     FM022300 VRB03KT P6SM BKN150=

USA.gov is the U.S. government's official web portal to all federal, state and local government web resources and services.